createdAt,value
2022-09-17T00:00:25.006Z,967.35
2022-09-17T00:01:25.229Z,967.32
2022-09-17T00:02:25.086Z,967.29
2022-09-17T00:03:25.159Z,967.33
2022-09-17T00:04:25.190Z,967.33
2022-09-17T00:05:25.237Z,967.34
2022-09-17T00:06:25.278Z,967.32
2022-09-17T00:07:25.331Z,967.35
2022-09-17T00:08:25.400Z,967.34
2022-09-17T00:09:25.425Z,967.31
2022-09-17T00:10:25.468Z,967.34
2022-09-17T00:11:25.522Z,967.36
2022-09-17T00:12:25.561Z,967.36
2022-09-17T00:13:25.636Z,967.31
2022-09-17T00:14:25.670Z,967.35
2022-09-17T00:15:25.713Z,967.29
2022-09-17T00:16:25.895Z,967.35
2022-09-17T00:17:25.823Z,967.35
2022-09-17T00:18:25.850Z,967.36
2022-09-17T00:19:25.911Z,967.38
2022-09-17T00:20:25.942Z,967.36
2022-09-17T00:21:26.012Z,967.36
2022-09-17T00:22:26.067Z,967.35
2022-09-17T00:23:26.093Z,967.41
2022-09-17T00:24:26.137Z,967.41
2022-09-17T00:25:26.194Z,967.37
2022-09-17T00:26:26.228Z,967.37
2022-09-17T00:27:26.312Z,967.31
2022-09-17T00:28:26.322Z,967.34
2022-09-17T00:29:26.369Z,967.28
2022-09-17T00:30:26.421Z,967.31
2022-09-17T00:31:26.517Z,967.29
2022-09-17T00:32:26.540Z,967.32
2022-09-17T00:33:26.563Z,967.28
2022-09-17T00:34:26.649Z,967.26
2022-09-17T00:35:26.661Z,967.27
2022-09-17T00:36:26.703Z,967.26
2022-09-17T00:37:26.755Z,967.25
2022-09-17T00:38:26.802Z,967.28
2022-09-17T00:39:26.874Z,967.28
2022-09-17T00:40:26.937Z,967.27
2022-09-17T00:41:26.944Z,967.28
2022-09-17T00:42:26.988Z,967.27
2022-09-17T00:43:27.063Z,967.26
2022-09-17T00:44:27.109Z,967.29
2022-09-17T00:45:27.130Z,967.28
2022-09-17T00:46:27.240Z,967.27
2022-09-17T00:47:27.254Z,967.34
2022-09-17T00:48:27.298Z,967.31
2022-09-17T00:49:27.324Z,967.35
2022-09-17T00:50:27.373Z,967.33
2022-09-17T00:51:27.445Z,967.40
2022-09-17T00:52:27.461Z,967.40
2022-09-17T00:53:27.509Z,967.40
2022-09-17T00:54:27.559Z,967.44
2022-09-17T00:55:27.630Z,967.40
2022-09-17T00:56:27.648Z,967.42
2022-09-17T00:57:27.722Z,967.43
2022-09-17T00:58:27.746Z,967.41
2022-09-17T00:59:27.796Z,967.41
2022-09-17T01:00:27.841Z,967.44
2022-09-17T01:01:27.927Z,967.40
2022-09-17T01:02:28.035Z,967.38
2022-09-17T01:03:27.984Z,967.37
2022-09-17T01:04:28.035Z,967.34
2022-09-17T01:05:28.089Z,967.34
2022-09-17T01:06:28.152Z,967.31
2022-09-17T01:07:28.175Z,967.31
2022-09-17T01:08:28.248Z,967.26
2022-09-17T01:09:28.301Z,967.31
2022-09-17T01:10:28.325Z,967.33
2022-09-17T01:11:28.362Z,967.34
2022-09-17T01:12:28.415Z,967.34
2022-09-17T01:13:28.488Z,967.37
2022-09-17T01:14:28.508Z,967.38
2022-09-17T01:15:28.553Z,967.41
2022-09-17T01:16:28.692Z,967.42
2022-09-17T01:17:28.646Z,967.43
2022-09-17T01:18:28.759Z,967.44
2022-09-17T01:19:28.739Z,967.45
2022-09-17T01:20:28.792Z,967.46
2022-09-17T01:21:28.839Z,967.46
2022-09-17T01:22:28.886Z,967.49
2022-09-17T01:23:28.965Z,967.49
2022-09-17T01:24:28.989Z,967.52
2022-09-17T01:25:35.300Z,967.55
2022-09-17T01:26:29.077Z,967.58
2022-09-17T01:27:29.123Z,967.56
2022-09-17T01:28:29.203Z,967.55
2022-09-17T01:29:29.212Z,967.53
2022-09-17T01:30:29.262Z,967.56
2022-09-17T01:31:29.360Z,967.55
2022-09-17T01:32:29.367Z,967.55
2022-09-17T01:33:29.471Z,967.57
2022-09-17T01:34:29.456Z,967.57
2022-09-17T01:35:29.498Z,967.60
2022-09-17T01:36:29.553Z,967.57
2022-09-17T01:37:30.833Z,967.58
2022-09-17T01:38:29.667Z,967.56
2022-09-17T01:39:29.693Z,967.58
2022-09-17T01:40:29.764Z,967.55
2022-09-17T01:41:29.784Z,967.56
2022-09-17T01:42:29.830Z,967.56
2022-09-17T01:43:29.916Z,967.57
2022-09-17T01:44:29.945Z,967.56
2022-09-17T01:45:29.968Z,967.51
2022-09-17T01:46:30.096Z,967.52
2022-09-17T01:47:30.065Z,967.51
2022-09-17T01:48:30.114Z,967.47
2022-09-17T01:49:30.183Z,967.50
2022-09-17T01:50:30.205Z,967.52
2022-09-17T01:51:30.258Z,967.51
2022-09-17T01:52:30.303Z,967.55
2022-09-17T01:53:30.348Z,967.55
2022-09-17T01:54:30.423Z,967.55
2022-09-17T01:55:30.443Z,967.56
2022-09-17T01:56:30.492Z,967.54
2022-09-17T01:57:30.571Z,967.54
2022-09-17T01:58:30.623Z,967.55
2022-09-17T01:59:30.630Z,967.60
2022-09-17T02:00:30.694Z,967.60
2022-09-17T02:01:30.729Z,967.59
2022-09-17T02:02:30.839Z,967.62
2022-09-17T02:03:30.826Z,967.67
2022-09-17T02:04:30.866Z,967.64
2022-09-17T02:05:30.943Z,967.67
2022-09-17T02:06:30.963Z,967.69
2022-09-17T02:07:31.008Z,967.66
2022-09-17T02:08:31.060Z,967.67
2022-09-17T02:09:31.127Z,967.64
2022-09-17T02:10:31.149Z,967.64
2022-09-17T02:11:31.225Z,967.62
2022-09-17T02:12:31.246Z,967.62
2022-09-17T02:13:31.318Z,967.61
2022-09-17T02:14:31.339Z,967.66
2022-09-17T02:15:31.386Z,967.63
2022-09-17T02:16:31.491Z,967.62
2022-09-17T02:17:31.480Z,967.61
2022-09-17T02:18:31.533Z,967.60
2022-09-17T02:19:31.581Z,967.63
2022-09-17T02:20:31.653Z,967.60
2022-09-17T02:21:31.673Z,967.63
2022-09-17T02:22:31.720Z,967.64
2022-09-17T02:23:31.791Z,967.68
2022-09-17T02:24:31.814Z,967.64
2022-09-17T02:25:31.860Z,967.63
2022-09-17T02:26:31.909Z,967.64
2022-09-17T02:27:31.955Z,967.65
2022-09-17T02:28:32.031Z,967.66
2022-09-17T02:29:32.068Z,967.67
2022-09-17T02:30:32.111Z,967.71
2022-09-17T02:31:32.181Z,967.71
2022-09-17T02:32:32.190Z,967.71
2022-09-17T02:33:32.237Z,967.68
2022-09-17T02:34:32.309Z,967.71
2022-09-17T02:35:32.335Z,967.70
2022-09-17T02:36:32.380Z,967.67
2022-09-17T02:37:32.424Z,967.65
2022-09-17T02:38:32.502Z,967.66
2022-09-17T02:39:32.541Z,967.67
2022-09-17T02:40:32.633Z,967.74
2022-09-17T02:41:32.614Z,967.72
2022-09-17T02:42:32.687Z,967.68
2022-09-17T02:43:32.709Z,967.68
2022-09-17T02:44:32.758Z,967.68
2022-09-17T02:45:32.808Z,967.73
2022-09-17T02:46:32.963Z,967.73
2022-09-17T02:47:32.896Z,967.72
2022-09-17T02:48:32.945Z,967.71
2022-09-17T02:49:33.000Z,967.70
2022-09-17T02:50:33.045Z,967.67
2022-09-17T02:51:33.110Z,967.66
2022-09-17T02:52:33.137Z,967.69
2022-09-17T02:53:33.206Z,967.65
2022-09-17T02:54:33.229Z,967.69
2022-09-17T02:55:33.278Z,967.67
2022-09-17T02:56:33.357Z,967.64
2022-09-17T02:57:33.373Z,967.66
2022-09-17T02:58:33.425Z,967.67
2022-09-17T02:59:33.464Z,967.69
2022-09-17T03:00:33.549Z,967.65
2022-09-17T03:01:33.657Z,967.71
2022-09-17T03:02:33.605Z,967.66
2022-09-17T03:03:33.656Z,967.70
2022-09-17T03:04:33.721Z,967.73
2022-09-17T03:05:33.751Z,967.69
2022-09-17T03:06:33.798Z,967.67
2022-09-17T03:07:33.865Z,967.63
2022-09-17T03:08:33.889Z,967.66
2022-09-17T03:09:33.967Z,967.64
2022-09-17T03:10:33.978Z,967.66
2022-09-17T03:11:34.029Z,967.62
2022-09-17T03:12:34.076Z,967.63
2022-09-17T03:13:34.124Z,967.59
2022-09-17T03:14:34.210Z,967.61
2022-09-17T03:15:34.221Z,967.55
2022-09-17T03:16:34.309Z,967.58
2022-09-17T03:17:34.313Z,967.57
2022-09-17T03:18:34.359Z,967.55
2022-09-17T03:19:34.428Z,967.57
2022-09-17T03:20:34.452Z,967.52
2022-09-17T03:21:34.502Z,967.58
2022-09-17T03:22:34.548Z,967.56
2022-09-17T03:23:34.620Z,967.54
2022-09-17T03:24:34.642Z,967.58
2022-09-17T03:25:34.684Z,967.57
2022-09-17T03:26:34.764Z,967.58
2022-09-17T03:27:34.820Z,967.60
2022-09-17T03:28:34.827Z,967.62
2022-09-17T03:29:34.878Z,967.62
2022-09-17T03:30:34.927Z,967.67
2022-09-17T03:31:35.051Z,967.66
2022-09-17T03:32:35.084Z,967.67
2022-09-17T03:33:35.079Z,967.70
2022-09-17T03:34:35.115Z,967.67
2022-09-17T03:35:35.161Z,967.73
2022-09-17T03:36:35.203Z,967.65
2022-09-17T03:37:35.280Z,967.70
2022-09-17T03:38:35.302Z,967.69
2022-09-17T03:39:35.345Z,967.68
2022-09-17T03:40:35.468Z,967.73
2022-09-17T03:41:35.440Z,967.72
2022-09-17T03:42:35.536Z,967.69
2022-09-17T03:43:35.536Z,967.69
2022-09-17T03:44:35.581Z,967.70
2022-09-17T03:45:35.627Z,967.71
2022-09-17T03:46:35.705Z,967.66
2022-09-17T03:47:35.748Z,967.68
2022-09-17T03:48:35.782Z,967.70
2022-09-17T03:49:35.817Z,967.72
2022-09-17T03:50:35.865Z,967.75
2022-09-17T03:51:35.909Z,967.73
2022-09-17T03:52:35.982Z,967.75
2022-09-17T03:53:36.007Z,967.75
2022-09-17T03:54:36.047Z,967.77
2022-09-17T03:55:36.093Z,967.78
2022-09-17T11:29:08.741Z,970.12
2022-09-17T11:30:01.581Z,970.08
2022-09-17T11:31:01.659Z,970.05
2022-09-17T11:32:01.726Z,970.05
2022-09-17T11:33:01.679Z,970.08
2022-09-17T11:34:01.734Z,970.05
2022-09-17T11:35:01.803Z,970.05
2022-09-17T11:36:01.819Z,970.04
2022-09-17T11:37:01.864Z,970.00
2022-09-17T11:38:01.910Z,969.97
2022-09-17T11:39:01.962Z,969.98
2022-09-17T11:40:02.137Z,969.98
2022-09-17T11:41:02.075Z,969.98
2022-09-17T11:42:02.100Z,970.00
2022-09-17T11:43:02.147Z,969.98
2022-09-17T11:44:02.200Z,970.03
2022-09-17T11:45:02.346Z,970.04
2022-09-17T11:46:02.326Z,970.07
2022-09-17T11:47:02.421Z,970.22
2022-09-17T11:48:02.387Z,970.29
2022-09-17T12:38:10.296Z,970.23
2022-09-17T12:39:10.335Z,970.15
2022-09-17T12:40:12.411Z,970.20
2022-09-17T12:41:11.321Z,970.22
2022-09-17T12:42:10.497Z,970.16
2022-09-17T12:43:10.527Z,970.18
2022-09-17T12:44:10.575Z,970.23
2022-09-17T12:46:54.262Z,970.26
2022-09-17T13:49:47.476Z,970.21
2022-09-17T14:50:31.705Z,970.22
2022-09-17T14:51:31.722Z,970.19
2022-09-17T14:52:31.771Z,970.26
2022-09-17T14:58:44.823Z,970.40
2022-09-17T14:59:44.843Z,970.63
2022-09-17T15:00:44.890Z,970.31
2022-09-17T15:01:45.036Z,970.29
2022-09-17T15:02:45.094Z,970.33
2022-09-17T15:03:53.683Z,970.31
2022-09-17T15:04:45.084Z,970.31
2022-09-17T15:06:06.153Z,970.30
2022-09-17T15:06:45.183Z,970.36
2022-09-17T15:07:45.402Z,970.42
2022-09-17T15:13:07.907Z,970.27
2022-09-17T15:14:06.938Z,970.22
2022-09-17T15:15:06.902Z,970.26
2022-09-17T15:21:24.697Z,970.27
2022-09-17T15:22:15.890Z,970.26
2022-09-17T15:30:19.589Z,970.12
2022-09-17T15:31:19.686Z,970.13
2022-09-17T23:42:34.606Z,972.90
2022-09-17T23:43:34.631Z,972.88
2022-09-17T23:44:34.669Z,972.87
2022-09-17T23:45:34.714Z,972.91
2022-09-17T23:46:34.922Z,972.89
